sensor_id;sensor_type;location;lat;lon;timestamp;P1;durP1;ratioP1;P2;durP2;ratioP2
50733;SDS011;36701;51.798;19.474;2023-03-29T02:01:56;19.10;;;4.15;;
50733;SDS011;36701;51.798;19.474;2023-03-29T02:04:29;7.10;;;2.87;;
50733;SDS011;36701;51.798;19.474;2023-03-29T02:06:55;9.30;;;3.92;;
50733;SDS011;36701;51.798;19.474;2023-03-29T02:09:22;13.73;;;3.20;;
50733;SDS011;36701;51.798;19.474;2023-03-29T02:11:49;14.90;;;4.03;;
50733;SDS011;36701;51.798;19.474;2023-03-29T02:14:16;8.13;;;3.05;;
50733;SDS011;36701;51.798;19.474;2023-03-29T02:16:42;12.15;;;3.90;;
50733;SDS011;36701;51.798;19.474;2023-03-29T02:19:11;7.03;;;3.47;;
50733;SDS011;36701;51.798;19.474;2023-03-29T02:21:39;6.90;;;3.47;;
50733;SDS011;36701;51.798;19.474;2023-03-29T02:24:09;9.32;;;3.08;;
50733;SDS011;36701;51.798;19.474;2023-03-29T02:26:38;8.60;;;3.40;;
50733;SDS011;36701;51.798;19.474;2023-03-29T02:29:05;13.40;;;3.35;;
50733;SDS011;36701;51.798;19.474;2023-03-29T02:31:32;10.50;;;3.30;;
50733;SDS011;36701;51.798;19.474;2023-03-29T02:36:42;7.07;;;3.60;;
50733;SDS011;36701;51.798;19.474;2023-03-29T02:39:09;14.50;;;3.90;;
50733;SDS011;36701;51.798;19.474;2023-03-29T02:41:38;14.75;;;3.45;;
50733;SDS011;36701;51.798;19.474;2023-03-29T02:44:09;8.20;;;2.85;;
50733;SDS011;36701;51.798;19.474;2023-03-29T02:46:36;16.65;;;4.18;;
50733;SDS011;36701;51.798;19.474;2023-03-29T02:49:03;9.23;;;3.20;;
50733;SDS011;36701;51.798;19.474;2023-03-29T02:51:30;11.98;;;4.05;;
50733;SDS011;36701;51.798;19.474;2023-03-29T02:54:01;7.07;;;3.50;;
50733;SDS011;36701;51.798;19.474;2023-03-29T02:56:29;11.65;;;4.55;;
50733;SDS011;36701;51.798;19.474;2023-03-29T02:58:56;13.32;;;3.53;;
50733;SDS011;36701;51.798;19.474;2023-03-29T03:01:22;13.80;;;3.90;;
50733;SDS011;36701;51.798;19.474;2023-03-29T03:03:49;9.93;;;3.85;;
50733;SDS011;36701;51.798;19.474;2023-03-29T03:06:16;10.70;;;3.47;;
50733;SDS011;36701;51.798;19.474;2023-03-29T03:08:49;15.82;;;4.28;;
50733;SDS011;36701;51.798;19.474;2023-03-29T03:11:15;9.32;;;3.35;;
50733;SDS011;36701;51.798;19.474;2023-03-29T03:13:41;10.70;;;4.25;;
50733;SDS011;36701;51.798;19.474;2023-03-29T03:16:08;14.50;;;4.00;;
50733;SDS011;36701;51.798;19.474;2023-03-29T03:18:35;17.65;;;4.10;;
50733;SDS011;36701;51.798;19.474;2023-03-29T03:21:01;9.68;;;3.83;;
50733;SDS011;36701;51.798;19.474;2023-03-29T03:23:27;13.02;;;3.70;;
50733;SDS011;36701;51.798;19.474;2023-03-29T03:25:54;13.18;;;4.05;;
50733;SDS011;36701;51.798;19.474;2023-03-29T03:28:21;14.73;;;4.45;;
50733;SDS011;36701;51.798;19.474;2023-03-29T03:30:47;14.10;;;4.72;;
50733;SDS011;36701;51.798;19.474;2023-03-29T03:33:19;12.98;;;4.30;;
50733;SDS011;36701;51.798;19.474;2023-03-29T03:35:47;16.60;;;5.35;;
50733;SDS011;36701;51.798;19.474;2023-03-29T03:38:13;9.60;;;4.62;;
50733;SDS011;36701;51.798;19.474;2023-03-29T03:40:40;14.25;;;4.47;;
50733;SDS011;36701;51.798;19.474;2023-03-29T03:43:06;17.33;;;5.32;;
50733;SDS011;36701;51.798;19.474;2023-03-29T03:45:33;16.15;;;6.10;;
50733;SDS011;36701;51.798;19.474;2023-03-29T03:48:00;15.13;;;5.43;;
50733;SDS011;36701;51.798;19.474;2023-03-29T03:50:27;27.70;;;6.68;;
50733;SDS011;36701;51.798;19.474;2023-03-29T03:52:54;17.92;;;5.70;;
50733;SDS011;36701;51.798;19.474;2023-03-29T03:55:21;21.00;;;6.53;;
50733;SDS011;36701;51.798;19.474;2023-03-29T03:57:47;16.33;;;6.10;;
50733;SDS011;36701;51.798;19.474;2023-03-29T04:00:14;15.95;;;6.32;;
50733;SDS011;36701;51.798;19.474;2023-03-29T04:02:49;13.05;;;4.85;;
50733;SDS011;36701;51.798;19.474;2023-03-29T04:05:16;18.73;;;6.00;;
50733;SDS011;36701;51.798;19.474;2023-03-29T04:07:42;53.90;;;17.05;;
50733;SDS011;36701;51.798;19.474;2023-03-29T04:10:10;28.20;;;7.55;;
50733;SDS011;36701;51.798;19.474;2023-03-29T04:12:37;15.25;;;6.80;;
50733;SDS011;36701;51.798;19.474;2023-03-29T04:15:05;20.52;;;7.70;;
50733;SDS011;36701;51.798;19.474;2023-03-29T04:17:32;15.43;;;6.78;;
50733;SDS011;36701;51.798;19.474;2023-03-29T04:19:58;24.80;;;8.95;;
50733;SDS011;36701;51.798;19.474;2023-03-29T04:22:26;21.95;;;7.00;;
50733;SDS011;36701;51.798;19.474;2023-03-29T04:24:53;18.75;;;8.15;;
50733;SDS011;36701;51.798;19.474;2023-03-29T04:27:21;27.65;;;10.05;;
50733;SDS011;36701;51.798;19.474;2023-03-29T04:29:54;22.05;;;8.23;;
50733;SDS011;36701;51.798;19.474;2023-03-29T04:32:23;20.50;;;7.62;;
50733;SDS011;36701;51.798;19.474;2023-03-29T04:34:51;17.83;;;7.47;;
50733;SDS011;36701;51.798;19.474;2023-03-29T04:37:17;22.10;;;8.80;;
50733;SDS011;36701;51.798;19.474;2023-03-29T04:39:48;23.42;;;8.35;;
50733;SDS011;36701;51.798;19.474;2023-03-29T04:42:15;31.52;;;9.13;;
50733;SDS011;36701;51.798;19.474;2023-03-29T04:44:41;25.40;;;9.45;;
50733;SDS011;36701;51.798;19.474;2023-03-29T04:47:09;23.15;;;9.52;;
50733;SDS011;36701;51.798;19.474;2023-03-29T04:49:40;26.33;;;10.48;;
50733;SDS011;36701;51.798;19.474;2023-03-29T04:52:07;27.33;;;10.25;;
50733;SDS011;36701;51.798;19.474;2023-03-29T04:54:36;38.35;;;10.10;;
50733;SDS011;36701;51.798;19.474;2023-03-29T04:57:05;27.98;;;11.00;;
50733;SDS011;36701;51.798;19.474;2023-03-29T04:59:32;30.90;;;10.85;;
50733;SDS011;36701;51.798;19.474;2023-03-29T05:01:59;29.58;;;9.73;;
50733;SDS011;36701;51.798;19.474;2023-03-29T05:04:27;37.42;;;10.80;;
50733;SDS011;36701;51.798;19.474;2023-03-29T05:06:55;26.10;;;10.15;;
50733;SDS011;36701;51.798;19.474;2023-03-29T05:09:22;30.30;;;9.18;;
50733;SDS011;36701;51.798;19.474;2023-03-29T05:11:49;30.70;;;9.48;;
50733;SDS011;36701;51.798;19.474;2023-03-29T05:14:15;33.85;;;9.90;;
50733;SDS011;36701;51.798;19.474;2023-03-29T05:16:43;23.38;;;9.40;;
50733;SDS011;36701;51.798;19.474;2023-03-29T05:19:09;24.65;;;8.75;;
50733;SDS011;36701;51.798;19.474;2023-03-29T05:21:37;21.95;;;8.60;;
50733;SDS011;36701;51.798;19.474;2023-03-29T05:24:05;22.45;;;8.23;;
50733;SDS011;36701;51.798;19.474;2023-03-29T05:26:36;16.20;;;6.97;;
50733;SDS011;36701;51.798;19.474;2023-03-29T05:29:02;25.40;;;7.95;;
50733;SDS011;36701;51.798;19.474;2023-03-29T05:31:31;25.35;;;7.32;;
50733;SDS011;36701;51.798;19.474;2023-03-29T05:33:57;17.60;;;7.87;;
50733;SDS011;36701;51.798;19.474;2023-03-29T05:36:24;16.02;;;6.68;;
50733;SDS011;36701;51.798;19.474;2023-03-29T05:38:50;20.08;;;7.22;;
50733;SDS011;36701;51.798;19.474;2023-03-29T05:41:17;25.50;;;8.07;;
50733;SDS011;36701;51.798;19.474;2023-03-29T05:43:46;26.67;;;7.80;;
50733;SDS011;36701;51.798;19.474;2023-03-29T05:46:12;30.60;;;8.75;;
50733;SDS011;36701;51.798;19.474;2023-03-29T05:48:40;26.50;;;10.90;;
50733;SDS011;36701;51.798;19.474;2023-03-29T05:51:07;43.08;;;14.23;;
50733;SDS011;36701;51.798;19.474;2023-03-29T05:53:33;22.70;;;7.35;;
50733;SDS011;36701;51.798;19.474;2023-03-29T05:56:00;25.20;;;8.48;;
50733;SDS011;36701;51.798;19.474;2023-03-29T05:58:27;29.27;;;8.13;;
50733;SDS011;36701;51.798;19.474;2023-03-29T06:00:53;23.52;;;9.52;;
50733;SDS011;36701;51.798;19.474;2023-03-29T06:03:22;28.60;;;8.07;;
50733;SDS011;36701;51.798;19.474;2023-03-29T06:05:57;53.85;;;22.33;;
50733;SDS011;36701;51.798;19.474;2023-03-29T06:08:24;49.85;;;17.62;;
50733;SDS011;36701;51.798;19.474;2023-03-29T06:10:58;62.58;;;17.45;;
50733;SDS011;36701;51.798;19.474;2023-03-29T06:13:26;20.27;;;7.28;;
50733;SDS011;36701;51.798;19.474;2023-03-29T06:15:53;29.35;;;8.38;;
50733;SDS011;36701;51.798;19.474;2023-03-29T06:18:19;23.50;;;8.25;;
50733;SDS011;36701;51.798;19.474;2023-03-29T06:20:46;39.88;;;10.30;;
50733;SDS011;36701;51.798;19.474;2023-03-29T06:23:13;58.75;;;16.15;;
50733;SDS011;36701;51.798;19.474;2023-03-29T06:25:39;102.93;;;21.08;;
50733;SDS011;36701;51.798;19.474;2023-03-29T06:28:06;99.15;;;22.33;;
50733;SDS011;36701;51.798;19.474;2023-03-29T06:30:33;37.55;;;10.90;;
50733;SDS011;36701;51.798;19.474;2023-03-29T06:32:59;33.50;;;12.50;;
50733;SDS011;36701;51.798;19.474;2023-03-29T06:35:26;15.23;;;6.78;;
50733;SDS011;36701;51.798;19.474;2023-03-29T06:37:53;21.40;;;5.85;;
50733;SDS011;36701;51.798;19.474;2023-03-29T06:40:23;15.07;;;6.35;;
50733;SDS011;36701;51.798;19.474;2023-03-29T06:42:49;18.12;;;5.87;;
50733;SDS011;36701;51.798;19.474;2023-03-29T06:45:24;13.73;;;6.12;;
50733;SDS011;36701;51.798;19.474;2023-03-29T06:47:52;21.50;;;7.30;;
50733;SDS011;36701;51.798;19.474;2023-03-29T06:50:20;24.12;;;9.40;;
50733;SDS011;36701;51.798;19.474;2023-03-29T06:52:49;29.95;;;6.93;;
50733;SDS011;36701;51.798;19.474;2023-03-29T06:55:16;17.80;;;7.82;;
50733;SDS011;36701;51.798;19.474;2023-03-29T06:57:43;12.35;;;4.90;;
50733;SDS011;36701;51.798;19.474;2023-03-29T07:00:10;17.10;;;6.80;;
50733;SDS011;36701;51.798;19.474;2023-03-29T07:02:46;9.85;;;4.53;;
50733;SDS011;36701;51.798;19.474;2023-03-29T07:05:13;33.55;;;8.65;;
50733;SDS011;36701;51.798;19.474;2023-03-29T07:07:39;24.10;;;6.87;;
50733;SDS011;36701;51.798;19.474;2023-03-29T07:10:22;14.80;;;4.75;;
50733;SDS011;36701;51.798;19.474;2023-03-29T07:12:53;22.70;;;7.18;;
50733;SDS011;36701;51.798;19.474;2023-03-29T07:15:20;14.75;;;6.22;;
50733;SDS011;36701;51.798;19.474;2023-03-29T07:17:49;9.98;;;4.30;;
50733;SDS011;36701;51.798;19.474;2023-03-29T07:20:15;10.35;;;4.10;;
50733;SDS011;36701;51.798;19.474;2023-03-29T07:22:43;11.57;;;4.55;;
50733;SDS011;36701;51.798;19.474;2023-03-29T07:25:10;7.28;;;3.62;;
50733;SDS011;36701;51.798;19.474;2023-03-29T07:27:38;9.82;;;3.65;;
50733;SDS011;36701;51.798;19.474;2023-03-29T07:30:05;8.32;;;3.45;;
50733;SDS011;36701;51.798;19.474;2023-03-29T07:32:36;9.43;;;3.37;;
50733;SDS011;36701;51.798;19.474;2023-03-29T07:35:05;44.97;;;12.77;;
50733;SDS011;36701;51.798;19.474;2023-03-29T07:37:32;16.60;;;6.78;;
50733;SDS011;36701;51.798;19.474;2023-03-29T07:39:59;16.17;;;6.20;;
50733;SDS011;36701;51.798;19.474;2023-03-29T07:42:28;14.85;;;4.40;;
50733;SDS011;36701;51.798;19.474;2023-03-29T07:44:55;4.82;;;2.80;;
50733;SDS011;36701;51.798;19.474;2023-03-29T07:47:29;5.70;;;3.03;;
50733;SDS011;36701;51.798;19.474;2023-03-29T07:49:55;8.75;;;3.33;;
50733;SDS011;36701;51.798;19.474;2023-03-29T07:52:21;4.57;;;2.90;;
50733;SDS011;36701;51.798;19.474;2023-03-29T07:54:48;10.15;;;2.80;;
50733;SDS011;36701;51.798;19.474;2023-03-29T07:57:15;9.73;;;3.92;;
50733;SDS011;36701;51.798;19.474;2023-03-29T07:59:42;9.93;;;4.47;;
50733;SDS011;36701;51.798;19.474;2023-03-29T08:02:10;9.30;;;2.50;;
50733;SDS011;36701;51.798;19.474;2023-03-29T08:04:37;9.02;;;3.50;;
50733;SDS011;36701;51.798;19.474;2023-03-29T08:07:08;13.77;;;3.45;;
50733;SDS011;36701;51.798;19.474;2023-03-29T08:09:35;7.90;;;3.80;;
50733;SDS011;36701;51.798;19.474;2023-03-29T08:12:02;10.85;;;3.65;;
50733;SDS011;36701;51.798;19.474;2023-03-29T08:14:30;8.60;;;3.60;;
50733;SDS011;36701;51.798;19.474;2023-03-29T08:16:57;22.08;;;6.37;;
50733;SDS011;36701;51.798;19.474;2023-03-29T08:19:24;19.23;;;4.15;;
50733;SDS011;36701;51.798;19.474;2023-03-29T08:21:51;12.40;;;4.68;;
50733;SDS011;36701;51.798;19.474;2023-03-29T08:24:20;7.15;;;2.72;;
50733;SDS011;36701;51.798;19.474;2023-03-29T08:26:47;4.93;;;2.42;;
50733;SDS011;36701;51.798;19.474;2023-03-29T08:29:14;5.87;;;2.40;;
50733;SDS011;36701;51.798;19.474;2023-03-29T08:31:42;5.87;;;2.83;;
50733;SDS011;36701;51.798;19.474;2023-03-29T08:34:09;6.90;;;2.90;;
50733;SDS011;36701;51.798;19.474;2023-03-29T08:36:37;9.55;;;3.53;;
50733;SDS011;36701;51.798;19.474;2023-03-29T08:39:03;5.43;;;2.62;;
50733;SDS011;36701;51.798;19.474;2023-03-29T08:44:05;9.30;;;4.18;;
50733;SDS011;36701;51.798;19.474;2023-03-29T08:49:05;3.00;;;1.80;;
50733;SDS011;36701;51.798;19.474;2023-03-29T08:51:35;4.22;;;1.95;;
50733;SDS011;36701;51.798;19.474;2023-03-29T08:56:33;5.90;;;2.20;;
50733;SDS011;36701;51.798;19.474;2023-03-29T08:59:03;19.27;;;2.50;;
50733;SDS011;36701;51.798;19.474;2023-03-29T09:01:32;5.55;;;2.00;;
50733;SDS011;36701;51.798;19.474;2023-03-29T09:04:11;3.30;;;1.80;;
50733;SDS011;36701;51.798;19.474;2023-03-29T09:06:41;4.10;;;2.10;;
50733;SDS011;36701;51.798;19.474;2023-03-29T09:09:13;14.63;;;4.35;;
50733;SDS011;36701;51.798;19.474;2023-03-29T09:17:11;5.87;;;2.50;;
50733;SDS011;36701;51.798;19.474;2023-03-29T09:19:45;31.30;;;9.57;;
50733;SDS011;36701;51.798;19.474;2023-03-29T09:27:44;4.40;;;2.85;;
50733;SDS011;36701;51.798;19.474;2023-03-29T09:30:14;7.45;;;2.97;;
50733;SDS011;36701;51.798;19.474;2023-03-29T09:35:36;7.62;;;3.45;;
50733;SDS011;36701;51.798;19.474;2023-03-29T09:38:00;13.62;;;3.50;;
50733;SDS011;36701;51.798;19.474;2023-03-29T09:40:32;1.98;;;1.62;;
50733;SDS011;36701;51.798;19.474;2023-03-29T09:43:00;2.47;;;2.17;;
50733;SDS011;36701;51.798;19.474;2023-03-29T09:45:35;3.62;;;3.05;;
50733;SDS011;36701;51.798;19.474;2023-03-29T09:48:13;2.03;;;1.60;;
50733;SDS011;36701;51.798;19.474;2023-03-29T09:50:41;2.97;;;1.65;;
50733;SDS011;36701;51.798;19.474;2023-03-29T09:53:09;3.97;;;2.22;;
50733;SDS011;36701;51.798;19.474;2023-03-29T09:55:36;3.72;;;1.62;;
50733;SDS011;36701;51.798;19.474;2023-03-29T10:00:41;10.93;;;3.30;;
50733;SDS011;36701;51.798;19.474;2023-03-29T10:03:08;3.87;;;2.80;;
50733;SDS011;36701;51.798;19.474;2023-03-29T10:05:35;3.80;;;1.92;;
50733;SDS011;36701;51.798;19.474;2023-03-29T10:08:18;6.10;;;3.10;;
50733;SDS011;36701;51.798;19.474;2023-03-29T10:10:45;7.60;;;2.35;;
50733;SDS011;36701;51.798;19.474;2023-03-29T10:13:17;3.33;;;1.90;;
50733;SDS011;36701;51.798;19.474;2023-03-29T10:15:55;3.28;;;2.03;;
50733;SDS011;36701;51.798;19.474;2023-03-29T10:18:22;3.22;;;1.75;;
50733;SDS011;36701;51.798;19.474;2023-03-29T10:20:49;4.85;;;2.30;;
50733;SDS011;36701;51.798;19.474;2023-03-29T10:23:16;3.50;;;2.60;;
50733;SDS011;36701;51.798;19.474;2023-03-29T10:25:43;3.10;;;1.48;;
50733;SDS011;36701;51.798;19.474;2023-03-29T10:28:13;5.65;;;2.03;;
50733;SDS011;36701;51.798;19.474;2023-03-29T10:30:40;2.28;;;1.67;;
50733;SDS011;36701;51.798;19.474;2023-03-29T10:33:14;1.50;;;1.40;;
50733;SDS011;36701;51.798;19.474;2023-03-29T10:35:42;6.40;;;3.45;;
50733;SDS011;36701;51.798;19.474;2023-03-29T10:38:10;6.62;;;3.05;;
50733;SDS011;36701;51.798;19.474;2023-03-29T10:40:42;4.25;;;2.75;;
50733;SDS011;36701;51.798;19.474;2023-03-29T10:43:13;8.18;;;4.30;;
50733;SDS011;36701;51.798;19.474;2023-03-29T10:45:55;4.20;;;2.22;;
50733;SDS011;36701;51.798;19.474;2023-03-29T10:48:28;4.05;;;2.87;;
50733;SDS011;36701;51.798;19.474;2023-03-29T10:50:59;1.92;;;1.73;;
50733;SDS011;36701;51.798;19.474;2023-03-29T10:53:33;7.93;;;2.17;;
50733;SDS011;36701;51.798;19.474;2023-03-29T10:56:04;4.03;;;2.20;;
50733;SDS011;36701;51.798;19.474;2023-03-29T11:01:03;4.32;;;1.92;;
50733;SDS011;36701;51.798;19.474;2023-03-29T11:03:48;5.00;;;1.90;;
50733;SDS011;36701;51.798;19.474;2023-03-29T11:06:28;2.92;;;2.05;;
50733;SDS011;36701;51.798;19.474;2023-03-29T11:08:58;5.50;;;2.22;;
50733;SDS011;36701;51.798;19.474;2023-03-29T11:11:34;2.90;;;2.12;;
50733;SDS011;36701;51.798;19.474;2023-03-29T11:14:08;7.22;;;1.90;;
50733;SDS011;36701;51.798;19.474;2023-03-29T11:29:30;4.43;;;2.33;;
50733;SDS011;36701;51.798;19.474;2023-03-29T11:39:48;4.32;;;2.87;;
50733;SDS011;36701;51.798;19.474;2023-03-29T11:42:22;2.22;;;2.00;;
50733;SDS011;36701;51.798;19.474;2023-03-29T11:44:50;10.00;;;1.83;;
50733;SDS011;36701;51.798;19.474;2023-03-29T11:47:22;3.05;;;1.87;;
50733;SDS011;36701;51.798;19.474;2023-03-29T11:49:54;1.55;;;1.45;;
50733;SDS011;36701;51.798;19.474;2023-03-29T11:52:26;8.23;;;2.05;;
50733;SDS011;36701;51.798;19.474;2023-03-29T11:57:29;4.47;;;2.12;;
50733;SDS011;36701;51.798;19.474;2023-03-29T12:02:34;4.40;;;2.50;;
50733;SDS011;36701;51.798;19.474;2023-03-29T12:05:06;1.85;;;1.50;;
50733;SDS011;36701;51.798;19.474;2023-03-29T12:07:36;1.73;;;1.42;;
50733;SDS011;36701;51.798;19.474;2023-03-29T12:10:14;1.87;;;1.55;;
50733;SDS011;36701;51.798;19.474;2023-03-29T12:17:38;2.17;;;1.58;;
50733;SDS011;36701;51.798;19.474;2023-03-29T12:20:10;4.12;;;2.67;;
50733;SDS011;36701;51.798;19.474;2023-03-29T12:22:38;6.25;;;2.20;;
50733;SDS011;36701;51.798;19.474;2023-03-29T12:25:05;6.97;;;1.87;;
50733;SDS011;36701;51.798;19.474;2023-03-29T12:27:36;6.15;;;1.98;;
50733;SDS011;36701;51.798;19.474;2023-03-29T12:30:22;1.75;;;1.65;;
50733;SDS011;36701;51.798;19.474;2023-03-29T12:40:25;3.30;;;1.87;;
50733;SDS011;36701;51.798;19.474;2023-03-29T12:45:41;7.00;;;3.03;;
50733;SDS011;36701;51.798;19.474;2023-03-29T12:48:17;11.30;;;5.22;;
50733;SDS011;36701;51.798;19.474;2023-03-29T12:50:51;10.98;;;4.97;;
50733;SDS011;36701;51.798;19.474;2023-03-29T12:53:24;5.35;;;3.08;;
50733;SDS011;36701;51.798;19.474;2023-03-29T12:58:23;3.75;;;2.53;;
50733;SDS011;36701;51.798;19.474;2023-03-29T13:06:09;3.65;;;3.33;;
50733;SDS011;36701;51.798;19.474;2023-03-29T13:08:36;3.83;;;2.00;;
50733;SDS011;36701;51.798;19.474;2023-03-29T13:11:04;2.75;;;1.73;;
50733;SDS011;36701;51.798;19.474;2023-03-29T13:13:33;11.12;;;1.77;;
50733;SDS011;36701;51.798;19.474;2023-03-29T13:16:14;2.30;;;2.15;;
50733;SDS011;36701;51.798;19.474;2023-03-29T13:24:20;4.22;;;1.60;;
50733;SDS011;36701;51.798;19.474;2023-03-29T13:27:28;5.15;;;2.20;;
50733;SDS011;36701;51.798;19.474;2023-03-29T13:43:18;3.08;;;1.62;;
50733;SDS011;36701;51.798;19.474;2023-03-29T13:50:51;10.90;;;1.40;;
50733;SDS011;36701;51.798;19.474;2023-03-29T13:53:21;2.10;;;1.58;;
50733;SDS011;36701;51.798;19.474;2023-03-29T13:55:49;4.55;;;2.35;;
50733;SDS011;36701;51.798;19.474;2023-03-29T13:58:26;4.70;;;2.58;;
50733;SDS011;36701;51.798;19.474;2023-03-29T14:01:55;3.35;;;1.50;;
50733;SDS011;36701;51.798;19.474;2023-03-29T14:03:50;7.25;;;2.55;;
50733;SDS011;36701;51.798;19.474;2023-03-29T14:06:22;4.03;;;2.03;;
50733;SDS011;36701;51.798;19.474;2023-03-29T14:08:49;2.22;;;1.85;;
50733;SDS011;36701;51.798;19.474;2023-03-29T14:11:20;11.43;;;2.20;;
50733;SDS011;36701;51.798;19.474;2023-03-29T14:13:50;1.85;;;1.30;;
50733;SDS011;36701;51.798;19.474;2023-03-29T14:16:16;5.32;;;1.70;;
50733;SDS011;36701;51.798;19.474;2023-03-29T14:18:43;3.10;;;1.52;;
50733;SDS011;36701;51.798;19.474;2023-03-29T14:21:11;4.43;;;1.70;;
50733;SDS011;36701;51.798;19.474;2023-03-29T14:23:42;3.92;;;2.08;;
50733;SDS011;36701;51.798;19.474;2023-03-29T14:26:11;6.47;;;1.85;;
50733;SDS011;36701;51.798;19.474;2023-03-29T14:28:46;6.22;;;2.62;;
50733;SDS011;36701;51.798;19.474;2023-03-29T14:31:19;3.62;;;2.30;;
50733;SDS011;36701;51.798;19.474;2023-03-29T14:33:50;5.50;;;3.35;;
50733;SDS011;36701;51.798;19.474;2023-03-29T14:36:16;10.85;;;2.50;;
50733;SDS011;36701;51.798;19.474;2023-03-29T14:38:44;6.40;;;1.90;;
50733;SDS011;36701;51.798;19.474;2023-03-29T14:41:13;2.55;;;1.95;;
50733;SDS011;36701;51.798;19.474;2023-03-29T14:43:39;3.40;;;1.70;;
50733;SDS011;36701;51.798;19.474;2023-03-29T14:46:05;4.87;;;2.60;;
50733;SDS011;36701;51.798;19.474;2023-03-29T14:48:32;1.83;;;1.65;;
50733;SDS011;36701;51.798;19.474;2023-03-29T14:50:59;5.30;;;2.22;;
50733;SDS011;36701;51.798;19.474;2023-03-29T14:53:25;5.25;;;1.65;;
50733;SDS011;36701;51.798;19.474;2023-03-29T14:55:53;4.37;;;1.92;;
50733;SDS011;36701;51.798;19.474;2023-03-29T14:58:21;4.55;;;2.37;;
50733;SDS011;36701;51.798;19.474;2023-03-29T15:00:48;5.00;;;2.17;;
50733;SDS011;36701;51.798;19.474;2023-03-29T15:03:15;2.55;;;1.75;;
50733;SDS011;36701;51.798;19.474;2023-03-29T15:05:45;10.60;;;2.55;;
50733;SDS011;36701;51.798;19.474;2023-03-29T15:08:12;13.98;;;6.22;;
50733;SDS011;36701;51.798;19.474;2023-03-29T15:10:39;3.47;;;2.10;;
50733;SDS011;36701;51.798;19.474;2023-03-29T15:13:07;5.32;;;2.53;;
50733;SDS011;36701;51.798;19.474;2023-03-29T15:15:38;7.40;;;2.72;;
50733;SDS011;36701;51.798;19.474;2023-03-29T15:18:05;4.37;;;2.33;;
50733;SDS011;36701;51.798;19.474;2023-03-29T15:20:40;2.30;;;1.80;;
50733;SDS011;36701;51.798;19.474;2023-03-29T15:23:18;8.02;;;2.55;;
50733;SDS011;36701;51.798;19.474;2023-03-29T15:25:46;10.05;;;2.70;;
50733;SDS011;36701;51.798;19.474;2023-03-29T15:28:24;7.60;;;3.70;;
50733;SDS011;36701;51.798;19.474;2023-03-29T15:30:57;5.35;;;2.53;;
50733;SDS011;36701;51.798;19.474;2023-03-29T15:33:24;6.43;;;3.47;;
50733;SDS011;36701;51.798;19.474;2023-03-29T15:35:56;6.05;;;3.10;;
50733;SDS011;36701;51.798;19.474;2023-03-29T15:38:22;6.45;;;3.00;;
50733;SDS011;36701;51.798;19.474;2023-03-29T15:40:49;4.45;;;2.92;;
50733;SDS011;36701;51.798;19.474;2023-03-29T15:43:15;5.82;;;2.30;;
50733;SDS011;36701;51.798;19.474;2023-03-29T15:45:41;4.47;;;2.30;;
50733;SDS011;36701;51.798;19.474;2023-03-29T15:48:09;4.55;;;2.10;;
50733;SDS011;36701;51.798;19.474;2023-03-29T15:50:36;6.50;;;2.80;;
50733;SDS011;36701;51.798;19.474;2023-03-29T15:53:02;6.90;;;3.08;;
50733;SDS011;36701;51.798;19.474;2023-03-29T15:55:29;9.93;;;3.35;;
50733;SDS011;36701;51.798;19.474;2023-03-29T15:57:56;6.80;;;3.12;;
50733;SDS011;36701;51.798;19.474;2023-03-29T16:00:22;5.30;;;2.97;;
50733;SDS011;36701;51.798;19.474;2023-03-29T16:02:50;6.60;;;3.35;;
50733;SDS011;36701;51.798;19.474;2023-03-29T16:05:16;5.90;;;3.12;;
50733;SDS011;36701;51.798;19.474;2023-03-29T16:07:42;10.10;;;3.20;;
50733;SDS011;36701;51.798;19.474;2023-03-29T16:10:08;9.88;;;4.05;;
50733;SDS011;36701;51.798;19.474;2023-03-29T16:12:35;19.65;;;4.80;;
50733;SDS011;36701;51.798;19.474;2023-03-29T16:15:08;11.10;;;3.83;;
50733;SDS011;36701;51.798;19.474;2023-03-29T16:17:37;4.87;;;3.37;;
50733;SDS011;36701;51.798;19.474;2023-03-29T16:20:03;3.97;;;3.42;;
50733;SDS011;36701;51.798;19.474;2023-03-29T16:22:30;7.60;;;3.37;;
50733;SDS011;36701;51.798;19.474;2023-03-29T16:24:57;8.25;;;2.72;;
50733;SDS011;36701;51.798;19.474;2023-03-29T16:27:23;4.82;;;2.70;;
50733;SDS011;36701;51.798;19.474;2023-03-29T16:29:49;7.65;;;2.60;;
50733;SDS011;36701;51.798;19.474;2023-03-29T16:32:16;13.25;;;3.22;;
50733;SDS011;36701;51.798;19.474;2023-03-29T16:34:42;7.50;;;3.55;;
50733;SDS011;36701;51.798;19.474;2023-03-29T16:37:15;8.70;;;2.92;;
50733;SDS011;36701;51.798;19.474;2023-03-29T16:39:41;8.75;;;3.00;;
50733;SDS011;36701;51.798;19.474;2023-03-29T16:42:07;10.93;;;4.72;;
50733;SDS011;36701;51.798;19.474;2023-03-29T16:44:34;11.02;;;3.60;;
50733;SDS011;36701;51.798;19.474;2023-03-29T16:47:01;6.80;;;3.37;;
50733;SDS011;36701;51.798;19.474;2023-03-29T16:49:27;8.50;;;3.17;;
50733;SDS011;36701;51.798;19.474;2023-03-29T16:51:53;3.78;;;3.10;;
50733;SDS011;36701;51.798;19.474;2023-03-29T16:54:19;5.72;;;2.70;;
50733;SDS011;36701;51.798;19.474;2023-03-29T16:56:46;4.07;;;3.10;;
50733;SDS011;36701;51.798;19.474;2023-03-29T16:59:12;5.72;;;3.75;;
50733;SDS011;36701;51.798;19.474;2023-03-29T17:01:38;9.50;;;3.25;;
50733;SDS011;36701;51.798;19.474;2023-03-29T17:04:11;13.62;;;3.97;;
50733;SDS011;36701;51.798;19.474;2023-03-29T17:06:37;10.20;;;3.47;;
50733;SDS011;36701;51.798;19.474;2023-03-29T17:09:04;10.18;;;3.62;;
50733;SDS011;36701;51.798;19.474;2023-03-29T17:11:31;11.10;;;4.05;;
50733;SDS011;36701;51.798;19.474;2023-03-29T17:13:57;10.35;;;3.97;;
50733;SDS011;36701;51.798;19.474;2023-03-29T17:16:23;10.13;;;4.25;;
50733;SDS011;36701;51.798;19.474;2023-03-29T17:18:49;11.05;;;4.53;;
50733;SDS011;36701;51.798;19.474;2023-03-29T17:21:16;11.60;;;5.30;;
50733;SDS011;36701;51.798;19.474;2023-03-29T17:23:42;7.68;;;4.90;;
50733;SDS011;36701;51.798;19.474;2023-03-29T17:26:08;12.37;;;4.10;;
50733;SDS011;36701;51.798;19.474;2023-03-29T17:28:37;11.02;;;4.15;;
50733;SDS011;36701;51.798;19.474;2023-03-29T17:31:05;11.88;;;4.55;;
50733;SDS011;36701;51.798;19.474;2023-03-29T17:33:32;13.32;;;5.32;;
50733;SDS011;36701;51.798;19.474;2023-03-29T17:35:59;15.43;;;6.95;;
50733;SDS011;36701;51.798;19.474;2023-03-29T17:38:25;20.58;;;4.72;;
50733;SDS011;36701;51.798;19.474;2023-03-29T17:40:53;8.65;;;4.30;;
50733;SDS011;36701;51.798;19.474;2023-03-29T17:43:20;12.27;;;4.60;;
50733;SDS011;36701;51.798;19.474;2023-03-29T17:45:50;17.17;;;6.15;;
50733;SDS011;36701;51.798;19.474;2023-03-29T17:48:16;10.70;;;5.20;;
50733;SDS011;36701;51.798;19.474;2023-03-29T17:50:43;10.48;;;5.85;;
50733;SDS011;36701;51.798;19.474;2023-03-29T17:53:10;14.98;;;5.97;;
50733;SDS011;36701;51.798;19.474;2023-03-29T17:55:40;20.48;;;5.60;;
50733;SDS011;36701;51.798;19.474;2023-03-29T17:58:12;15.95;;;6.90;;
50733;SDS011;36701;51.798;19.474;2023-03-29T18:00:38;15.88;;;6.57;;
50733;SDS011;36701;51.798;19.474;2023-03-29T18:03:11;25.08;;;6.65;;
50733;SDS011;36701;51.798;19.474;2023-03-29T18:05:38;16.25;;;6.47;;
50733;SDS011;36701;51.798;19.474;2023-03-29T18:08:04;20.55;;;6.47;;
50733;SDS011;36701;51.798;19.474;2023-03-29T18:10:31;17.45;;;6.95;;
50733;SDS011;36701;51.798;19.474;2023-03-29T18:12:57;24.50;;;7.18;;
50733;SDS011;36701;51.798;19.474;2023-03-29T18:15:24;25.10;;;8.50;;
50733;SDS011;36701;51.798;19.474;2023-03-29T18:17:50;25.33;;;6.95;;
50733;SDS011;36701;51.798;19.474;2023-03-29T18:20:16;18.85;;;7.50;;